Wetterdaten für den Flughafen Lübeck Blankensee


ADDS - METARS form results Aviation Digital Data Service (ADDS) Output produced by METARs form (2127 UTC 06 December 2019)
found at http://www.aviationweather.gov/metar/data/
 
EDDH 062120Z 22017KT 6000 -DZ BKN006 07/06 Q0999 TEMPO 22015G25KT 4000
TAF EDDH 061700Z 0618/0724 24015KT 9999 BKN006 TEMPO 0618/0707 24015G25KT 4000 -RADZ PROB30 TEMPO 0618/0707 2500 DZRA OVC004 BECMG 0707/0710 SCT012 BKN020 TEMPO 0707/0715 28015G25KT SHRA BKN012CB BECMG 0713/0715 26010KT TEMPO 0719/0724 BKN013

Nord: Hamburg, Lübeck
Ost: Schwerin, Rostock
Süd: Hannover
West: Bremen, Nordhloz

Copyright © 2016 Flugschule Hohensee